sensor_id;sensor_type;location;lat;lon;timestamp;P1;durP1;ratioP1;P2;durP2;ratioP2
5393;SDS011;2720;52.396;10.064;2022-09-17T00:00:37;3.03;;;1.67;;
5393;SDS011;2720;52.396;10.064;2022-09-17T00:03:05;6.47;;;1.93;;
5393;SDS011;2720;52.396;10.064;2022-09-17T00:05:33;9.27;;;2.60;;
5393;SDS011;2720;52.396;10.064;2022-09-17T00:08:01;9.70;;;2.07;;
5393;SDS011;2720;52.396;10.064;2022-09-17T00:10:28;2.50;;;1.53;;
5393;SDS011;2720;52.396;10.064;2022-09-17T00:12:56;4.00;;;1.90;;
5393;SDS011;2720;52.396;10.064;2022-09-17T00:15:25;14.40;;;1.53;;
5393;SDS011;2720;52.396;10.064;2022-09-17T00:17:52;3.90;;;1.30;;
5393;SDS011;2720;52.396;10.064;2022-09-17T00:20:21;3.77;;;1.40;;
5393;SDS011;2720;52.396;10.064;2022-09-17T00:22:48;8.10;;;1.50;;
5393;SDS011;2720;52.396;10.064;2022-09-17T00:25:15;5.70;;;1.40;;
5393;SDS011;2720;52.396;10.064;2022-09-17T00:27:43;1.63;;;1.23;;
5393;SDS011;2720;52.396;10.064;2022-09-17T00:30:10;1.80;;;1.10;;
5393;SDS011;2720;52.396;10.064;2022-09-17T00:32:39;3.17;;;1.30;;
5393;SDS011;2720;52.396;10.064;2022-09-17T00:35:06;2.87;;;1.67;;
5393;SDS011;2720;52.396;10.064;2022-09-17T00:37:33;7.50;;;1.40;;
5393;SDS011;2720;52.396;10.064;2022-09-17T00:40:00;3.80;;;1.50;;
5393;SDS011;2720;52.396;10.064;2022-09-17T00:42:28;9.77;;;1.83;;
5393;SDS011;2720;52.396;10.064;2022-09-17T00:44:55;2.87;;;1.60;;
5393;SDS011;2720;52.396;10.064;2022-09-17T00:47:24;6.70;;;1.93;;
5393;SDS011;2720;52.396;10.064;2022-09-17T00:49:57;17.57;;;2.40;;
5393;SDS011;2720;52.396;10.064;2022-09-17T00:52:28;7.43;;;2.03;;
5393;SDS011;2720;52.396;10.064;2022-09-17T00:55:00;6.43;;;1.83;;
5393;SDS011;2720;52.396;10.064;2022-09-17T00:57:33;8.73;;;1.93;;
5393;SDS011;2720;52.396;10.064;2022-09-17T01:00:01;7.80;;;2.70;;
5393;SDS011;2720;52.396;10.064;2022-09-17T01:02:31;7.87;;;3.67;;
5393;SDS011;2720;52.396;10.064;2022-09-17T01:04:59;12.30;;;2.40;;
5393;SDS011;2720;52.396;10.064;2022-09-17T01:10:27;10.77;;;3.23;;
5393;SDS011;2720;52.396;10.064;2022-09-17T01:13:00;13.07;;;3.37;;
5393;SDS011;2720;52.396;10.064;2022-09-17T01:15:37;19.23;;;3.20;;
5393;SDS011;2720;52.396;10.064;2022-09-17T01:18:16;17.23;;;3.80;;
5393;SDS011;2720;52.396;10.064;2022-09-17T01:21:03;21.37;;;2.77;;
5393;SDS011;2720;52.396;10.064;2022-09-17T01:23:41;17.63;;;3.33;;
5393;SDS011;2720;52.396;10.064;2022-09-17T01:26:35;9.10;;;2.70;;
5393;SDS011;2720;52.396;10.064;2022-09-17T01:29:11;12.00;;;3.17;;
5393;SDS011;2720;52.396;10.064;2022-09-17T01:31:42;16.00;;;3.23;;
5393;SDS011;2720;52.396;10.064;2022-09-17T01:34:14;24.93;;;3.50;;
5393;SDS011;2720;52.396;10.064;2022-09-17T01:36:51;19.53;;;3.63;;
5393;SDS011;2720;52.396;10.064;2022-09-17T01:39:25;20.00;;;3.77;;
5393;SDS011;2720;52.396;10.064;2022-09-17T01:41:55;15.10;;;3.90;;
5393;SDS011;2720;52.396;10.064;2022-09-17T01:44:25;13.40;;;2.80;;
5393;SDS011;2720;52.396;10.064;2022-09-17T01:47:02;13.47;;;3.50;;
5393;SDS011;2720;52.396;10.064;2022-09-17T01:49:30;19.80;;;2.70;;
5393;SDS011;2720;52.396;10.064;2022-09-17T01:51:58;9.10;;;2.60;;
5393;SDS011;2720;52.396;10.064;2022-09-17T01:54:27;12.00;;;2.40;;
5393;SDS011;2720;52.396;10.064;2022-09-17T01:57:00;13.17;;;2.97;;
5393;SDS011;2720;52.396;10.064;2022-09-17T01:59:31;28.07;;;4.07;;
5393;SDS011;2720;52.396;10.064;2022-09-17T02:02:05;28.17;;;4.50;;
5393;SDS011;2720;52.396;10.064;2022-09-17T02:04:37;23.33;;;3.40;;
5393;SDS011;2720;52.396;10.064;2022-09-17T02:07:10;17.33;;;3.43;;
5393;SDS011;2720;52.396;10.064;2022-09-17T02:09:42;21.03;;;3.60;;
5393;SDS011;2720;52.396;10.064;2022-09-17T02:12:14;16.80;;;3.27;;
5393;SDS011;2720;52.396;10.064;2022-09-17T02:14:45;15.03;;;2.97;;
5393;SDS011;2720;52.396;10.064;2022-09-17T02:17:21;9.63;;;2.13;;
5393;SDS011;2720;52.396;10.064;2022-09-17T02:19:52;21.73;;;2.90;;
5393;SDS011;2720;52.396;10.064;2022-09-17T02:22:21;7.17;;;2.30;;
5393;SDS011;2720;52.396;10.064;2022-09-17T02:24:55;24.87;;;3.53;;
5393;SDS011;2720;52.396;10.064;2022-09-17T02:27:30;24.40;;;3.00;;
5393;SDS011;2720;52.396;10.064;2022-09-17T02:30:06;15.00;;;3.00;;
5393;SDS011;2720;52.396;10.064;2022-09-17T02:32:34;21.40;;;3.53;;
5393;SDS011;2720;52.396;10.064;2022-09-17T02:35:02;16.53;;;3.10;;
5393;SDS011;2720;52.396;10.064;2022-09-17T02:37:30;9.53;;;2.63;;
5393;SDS011;2720;52.396;10.064;2022-09-17T02:39:57;5.70;;;2.40;;
5393;SDS011;2720;52.396;10.064;2022-09-17T02:42:27;13.70;;;3.70;;
5393;SDS011;2720;52.396;10.064;2022-09-17T02:45:00;6.90;;;2.70;;
5393;SDS011;2720;52.396;10.064;2022-09-17T02:47:49;12.63;;;2.67;;
5393;SDS011;2720;52.396;10.064;2022-09-17T02:50:33;19.33;;;2.70;;
5393;SDS011;2720;52.396;10.064;2022-09-17T02:53:15;18.37;;;2.87;;
5393;SDS011;2720;52.396;10.064;2022-09-17T02:55:59;16.60;;;2.80;;
5393;SDS011;2720;52.396;10.064;2022-09-17T02:58:32;17.80;;;2.87;;
5393;SDS011;2720;52.396;10.064;2022-09-17T03:01:06;16.67;;;3.00;;
5393;SDS011;2720;52.396;10.064;2022-09-17T03:03:42;13.00;;;2.80;;
5393;SDS011;2720;52.396;10.064;2022-09-17T03:06:11;18.67;;;3.50;;
5393;SDS011;2720;52.396;10.064;2022-09-17T03:08:39;12.93;;;3.83;;
5393;SDS011;2720;52.396;10.064;2022-09-17T03:11:08;16.40;;;3.37;;
5393;SDS011;2720;52.396;10.064;2022-09-17T03:13:37;14.63;;;3.80;;
5393;SDS011;2720;52.396;10.064;2022-09-17T03:16:04;25.80;;;3.07;;
5393;SDS011;2720;52.396;10.064;2022-09-17T03:18:32;15.23;;;3.17;;
5393;SDS011;2720;52.396;10.064;2022-09-17T03:21:00;18.73;;;2.83;;
5393;SDS011;2720;52.396;10.064;2022-09-17T03:23:28;13.70;;;3.00;;
5393;SDS011;2720;52.396;10.064;2022-09-17T03:25:55;13.53;;;2.40;;
5393;SDS011;2720;52.396;10.064;2022-09-17T03:28:22;22.53;;;3.37;;
5393;SDS011;2720;52.396;10.064;2022-09-17T03:30:50;16.73;;;2.70;;
5393;SDS011;2720;52.396;10.064;2022-09-17T03:33:17;14.93;;;3.07;;
5393;SDS011;2720;52.396;10.064;2022-09-17T03:35:44;9.87;;;3.67;;
5393;SDS011;2720;52.396;10.064;2022-09-17T03:38:13;9.10;;;2.90;;
5393;SDS011;2720;52.396;10.064;2022-09-17T03:40:40;13.23;;;2.30;;
5393;SDS011;2720;52.396;10.064;2022-09-17T03:43:08;18.37;;;2.73;;
5393;SDS011;2720;52.396;10.064;2022-09-17T03:45:35;13.83;;;2.93;;
5393;SDS011;2720;52.396;10.064;2022-09-17T03:48:03;9.20;;;2.10;;
5393;SDS011;2720;52.396;10.064;2022-09-17T03:50:30;11.00;;;2.30;;
5393;SDS011;2720;52.396;10.064;2022-09-17T03:52:57;14.83;;;2.90;;
5393;SDS011;2720;52.396;10.064;2022-09-17T03:55:26;31.53;;;2.63;;
5393;SDS011;2720;52.396;10.064;2022-09-17T03:57:53;15.77;;;2.37;;
5393;SDS011;2720;52.396;10.064;2022-09-17T04:00:21;16.90;;;2.50;;
5393;SDS011;2720;52.396;10.064;2022-09-17T04:02:49;9.03;;;1.40;;
5393;SDS011;2720;52.396;10.064;2022-09-17T04:05:16;18.50;;;2.90;;
5393;SDS011;2720;52.396;10.064;2022-09-17T04:07:43;19.07;;;4.70;;
5393;SDS011;2720;52.396;10.064;2022-09-17T04:10:10;22.70;;;2.77;;
5393;SDS011;2720;52.396;10.064;2022-09-17T04:12:39;17.33;;;2.40;;
5393;SDS011;2720;52.396;10.064;2022-09-17T04:15:06;17.97;;;2.30;;
5393;SDS011;2720;52.396;10.064;2022-09-17T04:17:34;10.40;;;2.20;;
5393;SDS011;2720;52.396;10.064;2022-09-17T04:20:01;17.83;;;1.97;;
5393;SDS011;2720;52.396;10.064;2022-09-17T04:22:28;20.53;;;1.90;;
5393;SDS011;2720;52.396;10.064;2022-09-17T04:24:55;15.90;;;2.30;;
5393;SDS011;2720;52.396;10.064;2022-09-17T04:27:22;13.20;;;2.10;;
5393;SDS011;2720;52.396;10.064;2022-09-17T04:29:51;17.77;;;2.00;;
5393;SDS011;2720;52.396;10.064;2022-09-17T04:32:18;11.30;;;2.13;;
5393;SDS011;2720;52.396;10.064;2022-09-17T04:34:45;26.37;;;3.83;;
5393;SDS011;2720;52.396;10.064;2022-09-17T04:37:12;26.50;;;3.07;;
5393;SDS011;2720;52.396;10.064;2022-09-17T04:39:39;17.53;;;2.23;;
5393;SDS011;2720;52.396;10.064;2022-09-17T04:42:06;16.10;;;2.40;;
5393;SDS011;2720;52.396;10.064;2022-09-17T04:44:33;15.37;;;1.90;;
5393;SDS011;2720;52.396;10.064;2022-09-17T04:47:01;19.80;;;2.10;;
5393;SDS011;2720;52.396;10.064;2022-09-17T04:49:29;12.63;;;2.10;;
5393;SDS011;2720;52.396;10.064;2022-09-17T04:51:56;15.60;;;3.00;;
5393;SDS011;2720;52.396;10.064;2022-09-17T04:54:23;10.47;;;2.00;;
5393;SDS011;2720;52.396;10.064;2022-09-17T04:56:50;13.73;;;2.07;;
5393;SDS011;2720;52.396;10.064;2022-09-17T04:59:17;11.63;;;2.57;;
5393;SDS011;2720;52.396;10.064;2022-09-17T05:01:45;15.13;;;3.27;;
5393;SDS011;2720;52.396;10.064;2022-09-17T05:04:14;11.07;;;2.23;;
5393;SDS011;2720;52.396;10.064;2022-09-17T05:06:41;10.47;;;1.80;;
5393;SDS011;2720;52.396;10.064;2022-09-17T05:09:08;17.83;;;2.73;;
5393;SDS011;2720;52.396;10.064;2022-09-17T05:11:35;14.40;;;2.20;;
5393;SDS011;2720;52.396;10.064;2022-09-17T05:14:02;11.73;;;2.87;;
5393;SDS011;2720;52.396;10.064;2022-09-17T05:16:29;15.50;;;3.40;;
5393;SDS011;2720;52.396;10.064;2022-09-17T05:18:56;11.50;;;2.00;;
5393;SDS011;2720;52.396;10.064;2022-09-17T05:21:24;16.30;;;2.07;;
5393;SDS011;2720;52.396;10.064;2022-09-17T05:23:51;14.27;;;2.97;;
5393;SDS011;2720;52.396;10.064;2022-09-17T05:26:18;17.80;;;2.57;;
5393;SDS011;2720;52.396;10.064;2022-09-17T05:28:46;17.80;;;2.03;;
5393;SDS011;2720;52.396;10.064;2022-09-17T05:31:13;16.13;;;2.57;;
5393;SDS011;2720;52.396;10.064;2022-09-17T05:33:40;10.17;;;2.00;;
5393;SDS011;2720;52.396;10.064;2022-09-17T05:36:07;11.33;;;1.80;;
5393;SDS011;2720;52.396;10.064;2022-09-17T05:38:35;19.33;;;1.90;;
5393;SDS011;2720;52.396;10.064;2022-09-17T05:41:03;22.50;;;2.97;;
5393;SDS011;2720;52.396;10.064;2022-09-17T05:43:31;8.30;;;1.90;;
5393;SDS011;2720;52.396;10.064;2022-09-17T05:45:59;14.80;;;2.27;;
5393;SDS011;2720;52.396;10.064;2022-09-17T05:48:27;17.43;;;2.77;;
5393;SDS011;2720;52.396;10.064;2022-09-17T05:50:54;13.53;;;2.00;;
5393;SDS011;2720;52.396;10.064;2022-09-17T05:53:21;16.70;;;2.67;;
5393;SDS011;2720;52.396;10.064;2022-09-17T05:55:50;12.90;;;2.53;;
5393;SDS011;2720;52.396;10.064;2022-09-17T05:58:17;17.07;;;3.53;;
5393;SDS011;2720;52.396;10.064;2022-09-17T06:00:45;15.27;;;2.50;;
5393;SDS011;2720;52.396;10.064;2022-09-17T06:03:13;24.83;;;4.43;;
5393;SDS011;2720;52.396;10.064;2022-09-17T06:05:40;16.37;;;2.37;;
5393;SDS011;2720;52.396;10.064;2022-09-17T06:08:07;11.70;;;1.73;;
5393;SDS011;2720;52.396;10.064;2022-09-17T06:10:35;19.87;;;4.27;;
5393;SDS011;2720;52.396;10.064;2022-09-17T06:13:04;10.33;;;2.20;;
5393;SDS011;2720;52.396;10.064;2022-09-17T06:15:31;13.80;;;2.40;;
5393;SDS011;2720;52.396;10.064;2022-09-17T06:17:58;12.97;;;2.07;;
5393;SDS011;2720;52.396;10.064;2022-09-17T06:20:25;13.53;;;2.03;;
5393;SDS011;2720;52.396;10.064;2022-09-17T06:22:54;13.63;;;2.70;;
5393;SDS011;2720;52.396;10.064;2022-09-17T06:25:22;10.30;;;2.30;;
5393;SDS011;2720;52.396;10.064;2022-09-17T06:27:49;19.00;;;2.00;;
5393;SDS011;2720;52.396;10.064;2022-09-17T06:30:17;12.50;;;1.87;;
5393;SDS011;2720;52.396;10.064;2022-09-17T06:32:44;16.83;;;2.17;;
5393;SDS011;2720;52.396;10.064;2022-09-17T06:35:11;23.73;;;2.17;;
5393;SDS011;2720;52.396;10.064;2022-09-17T06:37:38;20.93;;;2.50;;
5393;SDS011;2720;52.396;10.064;2022-09-17T06:40:06;13.50;;;2.67;;
5393;SDS011;2720;52.396;10.064;2022-09-17T06:42:34;18.43;;;2.93;;
5393;SDS011;2720;52.396;10.064;2022-09-17T06:45:01;9.80;;;1.80;;
5393;SDS011;2720;52.396;10.064;2022-09-17T06:47:29;27.10;;;2.67;;
5393;SDS011;2720;52.396;10.064;2022-09-17T06:49:56;24.87;;;2.90;;
5393;SDS011;2720;52.396;10.064;2022-09-17T06:52:24;20.37;;;2.87;;
5393;SDS011;2720;52.396;10.064;2022-09-17T06:54:51;17.20;;;2.07;;
5393;SDS011;2720;52.396;10.064;2022-09-17T06:57:18;15.03;;;2.77;;
5393;SDS011;2720;52.396;10.064;2022-09-17T06:59:46;12.43;;;2.70;;
5393;SDS011;2720;52.396;10.064;2022-09-17T07:02:14;14.80;;;1.90;;
5393;SDS011;2720;52.396;10.064;2022-09-17T07:04:42;12.43;;;2.37;;
5393;SDS011;2720;52.396;10.064;2022-09-17T07:07:09;14.80;;;2.10;;
5393;SDS011;2720;52.396;10.064;2022-09-17T07:09:36;12.33;;;1.67;;
5393;SDS011;2720;52.396;10.064;2022-09-17T07:12:06;10.80;;;1.47;;
5393;SDS011;2720;52.396;10.064;2022-09-17T07:14:34;7.47;;;1.93;;
5393;SDS011;2720;52.396;10.064;2022-09-17T07:17:01;18.80;;;2.67;;
5393;SDS011;2720;52.396;10.064;2022-09-17T07:19:28;22.73;;;2.90;;
5393;SDS011;2720;52.396;10.064;2022-09-17T07:21:57;25.10;;;2.80;;
5393;SDS011;2720;52.396;10.064;2022-09-17T07:24:24;9.43;;;2.70;;
5393;SDS011;2720;52.396;10.064;2022-09-17T07:26:51;14.70;;;1.90;;
5393;SDS011;2720;52.396;10.064;2022-09-17T07:29:20;11.23;;;1.70;;
5393;SDS011;2720;52.396;10.064;2022-09-17T07:31:50;15.33;;;2.87;;
5393;SDS011;2720;52.396;10.064;2022-09-17T07:34:17;11.83;;;1.53;;
5393;SDS011;2720;52.396;10.064;2022-09-17T07:36:44;17.57;;;2.50;;
5393;SDS011;2720;52.396;10.064;2022-09-17T07:39:13;15.97;;;2.37;;
5393;SDS011;2720;52.396;10.064;2022-09-17T07:41:40;18.77;;;1.83;;
5393;SDS011;2720;52.396;10.064;2022-09-17T07:44:09;11.10;;;1.77;;
5393;SDS011;2720;52.396;10.064;2022-09-17T07:46:36;13.47;;;2.37;;
5393;SDS011;2720;52.396;10.064;2022-09-17T07:49:05;14.20;;;1.87;;
5393;SDS011;2720;52.396;10.064;2022-09-17T07:51:32;10.77;;;2.00;;
5393;SDS011;2720;52.396;10.064;2022-09-17T07:53:59;18.20;;;2.23;;
5393;SDS011;2720;52.396;10.064;2022-09-17T07:56:27;14.07;;;2.10;;
5393;SDS011;2720;52.396;10.064;2022-09-17T07:58:54;9.90;;;2.40;;
5393;SDS011;2720;52.396;10.064;2022-09-17T08:01:21;22.43;;;2.87;;
5393;SDS011;2720;52.396;10.064;2022-09-17T08:03:49;22.47;;;2.80;;
5393;SDS011;2720;52.396;10.064;2022-09-17T08:06:18;7.63;;;1.53;;
5393;SDS011;2720;52.396;10.064;2022-09-17T08:08:46;9.67;;;2.43;;
5393;SDS011;2720;52.396;10.064;2022-09-17T08:11:14;15.43;;;2.10;;
5393;SDS011;2720;52.396;10.064;2022-09-17T08:13:45;17.00;;;2.83;;
5393;SDS011;2720;52.396;10.064;2022-09-17T08:16:13;19.10;;;2.50;;
5393;SDS011;2720;52.396;10.064;2022-09-17T08:18:40;12.10;;;2.10;;
5393;SDS011;2720;52.396;10.064;2022-09-17T08:21:08;19.40;;;2.53;;
5393;SDS011;2720;52.396;10.064;2022-09-17T08:23:37;15.40;;;2.97;;
5393;SDS011;2720;52.396;10.064;2022-09-17T08:26:06;8.30;;;1.93;;
5393;SDS011;2720;52.396;10.064;2022-09-17T08:28:36;6.30;;;1.83;;
5393;SDS011;2720;52.396;10.064;2022-09-17T08:31:05;15.60;;;2.03;;
5393;SDS011;2720;52.396;10.064;2022-09-17T08:33:34;12.90;;;2.60;;
5393;SDS011;2720;52.396;10.064;2022-09-17T08:36:02;18.17;;;3.07;;
5393;SDS011;2720;52.396;10.064;2022-09-17T08:38:31;12.67;;;1.53;;
5393;SDS011;2720;52.396;10.064;2022-09-17T08:41:04;11.10;;;1.73;;
5393;SDS011;2720;52.396;10.064;2022-09-17T08:43:44;18.57;;;3.57;;
5393;SDS011;2720;52.396;10.064;2022-09-17T08:46:17;11.73;;;2.30;;
5393;SDS011;2720;52.396;10.064;2022-09-17T08:48:46;23.03;;;2.90;;
5393;SDS011;2720;52.396;10.064;2022-09-17T08:51:23;16.20;;;1.97;;
5393;SDS011;2720;52.396;10.064;2022-09-17T08:54:01;11.30;;;1.90;;
5393;SDS011;2720;52.396;10.064;2022-09-17T08:56:35;4.00;;;1.17;;
5393;SDS011;2720;52.396;10.064;2022-09-17T08:59:08;20.30;;;2.00;;
5393;SDS011;2720;52.396;10.064;2022-09-17T09:01:47;10.23;;;2.20;;
5393;SDS011;2720;52.396;10.064;2022-09-17T09:04:35;17.00;;;1.97;;
5393;SDS011;2720;52.396;10.064;2022-09-17T09:07:17;14.30;;;2.43;;
5393;SDS011;2720;52.396;10.064;2022-09-17T09:09:49;12.07;;;2.20;;
5393;SDS011;2720;52.396;10.064;2022-09-17T09:12:21;14.23;;;2.27;;
5393;SDS011;2720;52.396;10.064;2022-09-17T09:14:51;5.00;;;1.30;;
5393;SDS011;2720;52.396;10.064;2022-09-17T09:17:26;11.50;;;2.13;;
5393;SDS011;2720;52.396;10.064;2022-09-17T09:19:57;13.97;;;1.60;;
5393;SDS011;2720;52.396;10.064;2022-09-17T09:22:29;19.10;;;1.67;;
5393;SDS011;2720;52.396;10.064;2022-09-17T09:25:02;11.60;;;2.40;;
5393;SDS011;2720;52.396;10.064;2022-09-17T09:27:40;10.60;;;2.07;;
5393;SDS011;2720;52.396;10.064;2022-09-17T09:30:12;16.60;;;2.83;;
5393;SDS011;2720;52.396;10.064;2022-09-17T09:32:44;11.87;;;2.00;;
5393;SDS011;2720;52.396;10.064;2022-09-17T09:35:21;14.33;;;3.00;;
5393;SDS011;2720;52.396;10.064;2022-09-17T09:37:51;14.23;;;2.07;;
5393;SDS011;2720;52.396;10.064;2022-09-17T09:40:25;15.43;;;2.10;;
5393;SDS011;2720;52.396;10.064;2022-09-17T09:42:59;12.10;;;1.97;;
5393;SDS011;2720;52.396;10.064;2022-09-17T09:45:34;6.17;;;1.60;;
5393;SDS011;2720;52.396;10.064;2022-09-17T09:48:14;8.40;;;2.00;;
5393;SDS011;2720;52.396;10.064;2022-09-17T09:50:49;16.20;;;2.13;;
5393;SDS011;2720;52.396;10.064;2022-09-17T09:53:30;16.90;;;2.80;;
5393;SDS011;2720;52.396;10.064;2022-09-17T09:56:10;8.87;;;2.00;;
5393;SDS011;2720;52.396;10.064;2022-09-17T09:58:53;17.60;;;2.20;;
5393;SDS011;2720;52.396;10.064;2022-09-17T10:01:20;11.33;;;2.10;;
5393;SDS011;2720;52.396;10.064;2022-09-17T10:03:49;9.80;;;1.30;;
5393;SDS011;2720;52.396;10.064;2022-09-17T10:06:18;8.57;;;1.97;;
5393;SDS011;2720;52.396;10.064;2022-09-17T10:11:38;13.03;;;1.80;;
5393;SDS011;2720;52.396;10.064;2022-09-17T10:14:19;11.33;;;2.40;;
5393;SDS011;2720;52.396;10.064;2022-09-17T10:16:49;15.20;;;1.63;;
5393;SDS011;2720;52.396;10.064;2022-09-17T10:19:36;16.27;;;2.17;;
5393;SDS011;2720;52.396;10.064;2022-09-17T10:22:16;10.93;;;3.20;;
5393;SDS011;2720;52.396;10.064;2022-09-17T10:24:48;11.77;;;1.20;;
5393;SDS011;2720;52.396;10.064;2022-09-17T10:27:17;13.33;;;2.07;;
5393;SDS011;2720;52.396;10.064;2022-09-17T10:29:47;11.70;;;2.10;;
5393;SDS011;2720;52.396;10.064;2022-09-17T10:32:17;9.30;;;2.07;;
5393;SDS011;2720;52.396;10.064;2022-09-17T10:34:57;7.60;;;2.13;;
5393;SDS011;2720;52.396;10.064;2022-09-17T10:37:32;11.30;;;1.77;;
5393;SDS011;2720;52.396;10.064;2022-09-17T10:40:01;12.40;;;1.80;;
5393;SDS011;2720;52.396;10.064;2022-09-17T10:42:48;14.00;;;1.97;;
5393;SDS011;2720;52.396;10.064;2022-09-17T10:45:22;9.80;;;1.47;;
5393;SDS011;2720;52.396;10.064;2022-09-17T10:47:50;13.40;;;2.10;;
5393;SDS011;2720;52.396;10.064;2022-09-17T10:50:19;12.80;;;2.00;;
5393;SDS011;2720;52.396;10.064;2022-09-17T10:52:50;16.30;;;1.87;;
5393;SDS011;2720;52.396;10.064;2022-09-17T10:55:21;10.37;;;1.80;;
5393;SDS011;2720;52.396;10.064;2022-09-17T11:00:50;13.80;;;2.10;;
5393;SDS011;2720;52.396;10.064;2022-09-17T11:03:41;7.73;;;1.47;;
5393;SDS011;2720;52.396;10.064;2022-09-17T11:06:36;11.77;;;3.10;;
5393;SDS011;2720;52.396;10.064;2022-09-17T11:09:42;14.27;;;1.83;;
5393;SDS011;2720;52.396;10.064;2022-09-17T11:12:18;5.17;;;2.00;;
5393;SDS011;2720;52.396;10.064;2022-09-17T11:14:57;15.07;;;2.03;;
5393;SDS011;2720;52.396;10.064;2022-09-17T11:17:41;6.30;;;1.33;;
5393;SDS011;2720;52.396;10.064;2022-09-17T11:20:29;8.07;;;1.60;;
5393;SDS011;2720;52.396;10.064;2022-09-17T11:23:12;9.03;;;1.60;;
5393;SDS011;2720;52.396;10.064;2022-09-17T11:25:50;6.33;;;1.00;;
5393;SDS011;2720;52.396;10.064;2022-09-17T11:28:26;6.67;;;1.60;;
5393;SDS011;2720;52.396;10.064;2022-09-17T11:31:11;10.73;;;1.40;;
5393;SDS011;2720;52.396;10.064;2022-09-17T11:33:59;9.27;;;1.20;;
5393;SDS011;2720;52.396;10.064;2022-09-17T11:36:47;25.47;;;1.63;;
5393;SDS011;2720;52.396;10.064;2022-09-17T11:39:22;12.80;;;1.70;;
5393;SDS011;2720;52.396;10.064;2022-09-17T11:41:52;6.23;;;1.60;;
5393;SDS011;2720;52.396;10.064;2022-09-17T11:44:23;14.53;;;1.63;;
5393;SDS011;2720;52.396;10.064;2022-09-17T11:46:54;6.40;;;1.33;;
5393;SDS011;2720;52.396;10.064;2022-09-17T11:49:28;9.30;;;1.37;;
5393;SDS011;2720;52.396;10.064;2022-09-17T11:52:00;5.90;;;1.10;;
5393;SDS011;2720;52.396;10.064;2022-09-17T11:54:34;4.00;;;0.80;;
5393;SDS011;2720;52.396;10.064;2022-09-17T11:57:05;4.00;;;1.90;;
5393;SDS011;2720;52.396;10.064;2022-09-17T11:59:37;3.90;;;1.00;;
5393;SDS011;2720;52.396;10.064;2022-09-17T12:02:12;6.33;;;1.10;;
5393;SDS011;2720;52.396;10.064;2022-09-17T12:04:46;9.80;;;2.17;;
5393;SDS011;2720;52.396;10.064;2022-09-17T12:07:24;6.23;;;2.20;;
5393;SDS011;2720;52.396;10.064;2022-09-17T12:09:59;6.00;;;1.10;;
5393;SDS011;2720;52.396;10.064;2022-09-17T12:12:41;7.77;;;2.00;;
5393;SDS011;2720;52.396;10.064;2022-09-17T12:15:16;4.30;;;1.03;;
5393;SDS011;2720;52.396;10.064;2022-09-17T12:17:46;5.67;;;1.57;;
5393;SDS011;2720;52.396;10.064;2022-09-17T12:20:22;6.00;;;1.30;;
5393;SDS011;2720;52.396;10.064;2022-09-17T12:22:53;12.70;;;1.70;;
5393;SDS011;2720;52.396;10.064;2022-09-17T12:25:23;5.73;;;0.90;;
5393;SDS011;2720;52.396;10.064;2022-09-17T12:27:55;3.60;;;1.20;;
5393;SDS011;2720;52.396;10.064;2022-09-17T12:30:27;3.27;;;1.30;;
5393;SDS011;2720;52.396;10.064;2022-09-17T12:36:00;9.70;;;1.20;;
5393;SDS011;2720;52.396;10.064;2022-09-17T12:42:01;4.20;;;1.40;;
5393;SDS011;2720;52.396;10.064;2022-09-17T12:44:41;9.30;;;1.03;;
5393;SDS011;2720;52.396;10.064;2022-09-17T12:47:27;6.40;;;1.20;;
5393;SDS011;2720;52.396;10.064;2022-09-17T12:50:20;5.80;;;1.33;;
5393;SDS011;2720;52.396;10.064;2022-09-17T12:53:03;11.63;;;1.80;;
5393;SDS011;2720;52.396;10.064;2022-09-17T12:58:35;6.10;;;0.90;;
5393;SDS011;2720;52.396;10.064;2022-09-17T13:01:23;4.67;;;1.00;;
5393;SDS011;2720;52.396;10.064;2022-09-17T13:03:57;8.97;;;1.00;;
5393;SDS011;2720;52.396;10.064;2022-09-17T13:06:39;5.30;;;1.23;;
5393;SDS011;2720;52.396;10.064;2022-09-17T13:09:31;16.27;;;1.50;;
5393;SDS011;2720;52.396;10.064;2022-09-17T13:12:15;6.80;;;1.73;;
5393;SDS011;2720;52.396;10.064;2022-09-17T13:14:59;8.40;;;1.80;;
5393;SDS011;2720;52.396;10.064;2022-09-17T13:17:52;8.93;;;1.87;;
5393;SDS011;2720;52.396;10.064;2022-09-17T13:20:29;8.33;;;1.10;;
5393;SDS011;2720;52.396;10.064;2022-09-17T13:22:59;7.13;;;1.63;;
5393;SDS011;2720;52.396;10.064;2022-09-17T13:25:27;2.80;;;1.20;;
5393;SDS011;2720;52.396;10.064;2022-09-17T13:28:03;8.53;;;1.70;;
5393;SDS011;2720;52.396;10.064;2022-09-17T13:36:22;13.67;;;1.47;;
5393;SDS011;2720;52.396;10.064;2022-09-17T13:39:09;7.83;;;1.50;;
5393;SDS011;2720;52.396;10.064;2022-09-17T13:41:58;5.57;;;0.93;;
5393;SDS011;2720;52.396;10.064;2022-09-17T13:44:32;6.47;;;1.57;;
5393;SDS011;2720;52.396;10.064;2022-09-17T13:47:08;10.73;;;1.57;;
5393;SDS011;2720;52.396;10.064;2022-09-17T13:49:42;10.70;;;1.30;;
5393;SDS011;2720;52.396;10.064;2022-09-17T13:52:10;5.53;;;1.20;;
5393;SDS011;2720;52.396;10.064;2022-09-17T13:54:37;7.27;;;1.70;;
5393;SDS011;2720;52.396;10.064;2022-09-17T13:57:06;4.40;;;0.90;;
5393;SDS011;2720;52.396;10.064;2022-09-17T13:59:36;13.20;;;2.40;;
5393;SDS011;2720;52.396;10.064;2022-09-17T14:07:46;3.23;;;1.37;;
5393;SDS011;2720;52.396;10.064;2022-09-17T14:10:30;15.53;;;1.57;;
5393;SDS011;2720;52.396;10.064;2022-09-17T14:13:19;5.27;;;1.37;;
5393;SDS011;2720;52.396;10.064;2022-09-17T14:19:25;8.53;;;1.40;;
5393;SDS011;2720;52.396;10.064;2022-09-17T14:22:11;4.80;;;2.07;;
5393;SDS011;2720;52.396;10.064;2022-09-17T14:24:44;12.70;;;1.93;;
5393;SDS011;2720;52.396;10.064;2022-09-17T14:27:20;5.90;;;1.60;;
5393;SDS011;2720;52.396;10.064;2022-09-17T14:30:11;4.90;;;0.87;;
5393;SDS011;2720;52.396;10.064;2022-09-17T14:32:44;10.47;;;1.30;;
5393;SDS011;2720;52.396;10.064;2022-09-17T14:35:20;7.50;;;1.33;;
5393;SDS011;2720;52.396;10.064;2022-09-17T14:37:51;9.73;;;1.70;;
5393;SDS011;2720;52.396;10.064;2022-09-17T14:40:21;5.87;;;1.23;;
5393;SDS011;2720;52.396;10.064;2022-09-17T14:42:51;7.73;;;1.30;;
5393;SDS011;2720;52.396;10.064;2022-09-17T14:45:22;6.30;;;1.10;;
5393;SDS011;2720;52.396;10.064;2022-09-17T14:56:46;5.30;;;1.60;;
5393;SDS011;2720;52.396;10.064;2022-09-17T14:59:18;3.67;;;0.80;;
5393;SDS011;2720;52.396;10.064;2022-09-17T15:01:50;12.43;;;1.33;;
5393;SDS011;2720;52.396;10.064;2022-09-17T15:04:22;6.57;;;2.07;;
5393;SDS011;2720;52.396;10.064;2022-09-17T15:06:51;6.97;;;1.17;;
5393;SDS011;2720;52.396;10.064;2022-09-17T15:09:21;10.07;;;1.63;;
5393;SDS011;2720;52.396;10.064;2022-09-17T15:11:50;3.60;;;0.97;;
5393;SDS011;2720;52.396;10.064;2022-09-17T15:14:20;3.43;;;1.10;;
5393;SDS011;2720;52.396;10.064;2022-09-17T15:16:49;7.33;;;1.07;;
5393;SDS011;2720;52.396;10.064;2022-09-17T15:19:20;7.30;;;0.87;;
5393;SDS011;2720;52.396;10.064;2022-09-17T15:21:51;17.93;;;2.00;;
5393;SDS011;2720;52.396;10.064;2022-09-17T15:24:31;7.93;;;1.10;;
5393;SDS011;2720;52.396;10.064;2022-09-17T15:27:07;6.53;;;1.87;;
5393;SDS011;2720;52.396;10.064;2022-09-17T15:29:39;3.40;;;1.40;;
5393;SDS011;2720;52.396;10.064;2022-09-17T15:32:10;3.93;;;1.50;;
5393;SDS011;2720;52.396;10.064;2022-09-17T15:34:39;8.67;;;1.70;;
5393;SDS011;2720;52.396;10.064;2022-09-17T15:37:14;7.73;;;1.70;;
5393;SDS011;2720;52.396;10.064;2022-09-17T15:39:46;8.10;;;1.60;;
5393;SDS011;2720;52.396;10.064;2022-09-17T15:42:22;11.43;;;2.50;;
5393;SDS011;2720;52.396;10.064;2022-09-17T15:44:52;16.00;;;1.90;;
5393;SDS011;2720;52.396;10.064;2022-09-17T15:47:34;7.73;;;1.67;;
5393;SDS011;2720;52.396;10.064;2022-09-17T15:50:16;9.87;;;2.63;;
5393;SDS011;2720;52.396;10.064;2022-09-17T15:52:46;7.33;;;1.60;;
5393;SDS011;2720;52.396;10.064;2022-09-17T15:55:29;6.37;;;1.73;;
5393;SDS011;2720;52.396;10.064;2022-09-17T15:58:02;9.50;;;1.80;;
5393;SDS011;2720;52.396;10.064;2022-09-17T16:00:30;9.50;;;1.90;;
5393;SDS011;2720;52.396;10.064;2022-09-17T16:05:45;1.53;;;1.20;;